EZY14MW EGNT-LIRF
Flight info
| Callsign | EZY14MW |
|---|---|
| Flight time | N/A |
| Altitude | 37000 |
| Route | GIRLI P18 GASKO P16 RIBEL UP16 CROFT UL612 HON DCT XAMAB UL612 OGULO DCT OKASI DCT OKEKO DCT MOU DCT MADIV DCT MOKIP DCT TUFTA DCT KOGAS DCT MEDAM DCT NITAM DCT MOGBO DCT ELB DCT ELKAP |
| Aircraft | A20N/M-SDE2E3FGHIJ1RWXYZ/LB1 |
Departure
| Time | N/A |
|---|---|
| Airport | Newcastle International Airport (EGNT) |
Arrival
| Time | 2026-05-06 17:38 |
|---|---|
| Airport | Rome–Fiumicino Leonardo da Vinci International Airport (LIRF) |
| Time | Latitude | Longitude | Altitude | Speed | Heading |
|---|---|---|---|---|---|
| 2026-05-06 17:21 | 42.34540 | 12.15214 | 16929 ft | 335 kts | 105° |
| 2026-05-06 17:21 | 42.34026 | 12.18272 | 16673 ft | 328 kts | 104° |
| 2026-05-06 17:22 | 42.33535 | 12.21259 | 16392 ft | 325 kts | 105° |
| 2026-05-06 17:22 | 42.33041 | 12.24252 | 16085 ft | 328 kts | 104° |
| 2026-05-06 17:22 | 42.32561 | 12.27257 | 15747 ft | 327 kts | 103° |
| 2026-05-06 17:22 | 42.32094 | 12.30261 | 15379 ft | 324 kts | 102° |
| 2026-05-06 17:23 | 42.31654 | 12.33240 | 15011 ft | 322 kts | 103° |
| 2026-05-06 17:23 | 42.31219 | 12.36206 | 14645 ft | 320 kts | 104° |
| 2026-05-06 17:23 | 42.30970 | 12.39222 | 14282 ft | 320 kts | 86° |
| 2026-05-06 17:23 | 42.31548 | 12.42100 | 13895 ft | 319 kts | 63° |
| 2026-05-06 17:24 | 42.32707 | 12.44655 | 13433 ft | 319 kts | 47° |
| 2026-05-06 17:24 | 42.34422 | 12.46503 | 12966 ft | 313 kts | 23° |
| 2026-05-06 17:24 | 42.36484 | 12.47279 | 12512 ft | 306 kts | 358° |
| 2026-05-06 17:24 | 42.38541 | 12.46847 | 12062 ft | 298 kts | 333° |
| 2026-05-06 17:25 | 42.40210 | 12.45296 | 11608 ft | 290 kts | 307° |
| 2026-05-06 17:25 | 42.41166 | 12.42938 | 11133 ft | 286 kts | 282° |
| 2026-05-06 17:25 | 42.41248 | 12.40273 | 10653 ft | 285 kts | 257° |
| 2026-05-06 17:25 | 42.40465 | 12.37828 | 10192 ft | 285 kts | 232° |
| 2026-05-06 17:26 | 42.38966 | 12.36097 | 9734 ft | 286 kts | 211° |
| 2026-05-06 17:26 | 42.37158 | 12.34858 | 9226 ft | 287 kts | 206° |
| 2026-05-06 17:26 | 42.35323 | 12.33702 | 8730 ft | 287 kts | 207° |
| 2026-05-06 17:26 | 42.33517 | 12.32508 | 8245 ft | 286 kts | 208° |
| 2026-05-06 17:27 | 42.31730 | 12.31253 | 7751 ft | 286 kts | 209° |
| 2026-05-06 17:27 | 42.29977 | 12.29973 | 7293 ft | 285 kts | 209° |
| 2026-05-06 17:27 | 42.28250 | 12.28698 | 6866 ft | 284 kts | 209° |
| 2026-05-06 17:27 | 42.26563 | 12.27441 | 6739 ft | 270 kts | 210° |
| 2026-05-06 17:28 | 42.24957 | 12.26233 | 6632 ft | 258 kts | 210° |
| 2026-05-06 17:28 | 42.23392 | 12.25056 | 6541 ft | 246 kts | 210° |
| 2026-05-06 17:28 | 42.21959 | 12.23982 | 6438 ft | 235 kts | 209° |
| 2026-05-06 17:28 | 42.20553 | 12.22932 | 6291 ft | 226 kts | 209° |
| 2026-05-06 17:29 | 42.19193 | 12.21919 | 6195 ft | 215 kts | 209° |
| 2026-05-06 17:29 | 42.17955 | 12.21000 | 6087 ft | 205 kts | 209° |
| 2026-05-06 17:29 | 42.16703 | 12.20070 | 5912 ft | 200 kts | 209° |
| 2026-05-06 17:29 | 42.15492 | 12.19174 | 5627 ft | 201 kts | 208° |
| 2026-05-06 17:30 | 42.14265 | 12.18270 | 5335 ft | 201 kts | 208° |
| 2026-05-06 17:30 | 42.13025 | 12.17341 | 5028 ft | 203 kts | 207° |
| 2026-05-06 17:30 | 42.11789 | 12.16421 | 4711 ft | 204 kts | 208° |
| 2026-05-06 17:30 | 42.10527 | 12.15485 | 4368 ft | 204 kts | 208° |
| 2026-05-06 17:31 | 42.09276 | 12.14558 | 4055 ft | 205 kts | 207° |
| 2026-05-06 17:31 | 42.08037 | 12.13641 | 3907 ft | 195 kts | 207° |
| 2026-05-06 17:31 | 42.06850 | 12.12916 | 3964 ft | 176 kts | 193° |
| 2026-05-06 17:31 | 42.05678 | 12.12774 | 3970 ft | 168 kts | 177° |
| 2026-05-06 17:32 | 42.04470 | 12.13042 | 3972 ft | 183 kts | 168° |
| 2026-05-06 17:32 | 42.03257 | 12.13511 | 3967 ft | 180 kts | 164° |
| 2026-05-06 17:32 | 42.02063 | 12.14018 | 3967 ft | 177 kts | 164° |
| 2026-05-06 17:32 | 42.00911 | 12.14503 | 3879 ft | 167 kts | 164° |
| 2026-05-06 17:33 | 42.00170 | 12.14813 | 3756 ft | 164 kts | 164° |
| 2026-05-06 17:33 | 41.99100 | 12.15263 | 3549 ft | 161 kts | 165° |
| 2026-05-06 17:33 | 41.98034 | 12.15711 | 3355 ft | 156 kts | 164° |
| 2026-05-06 17:33 | 41.97008 | 12.16149 | 3145 ft | 155 kts | 164° |
| 2026-05-06 17:34 | 41.95963 | 12.16582 | 2932 ft | 157 kts | 165° |
| 2026-05-06 17:34 | 41.94923 | 12.17018 | 2736 ft | 155 kts | 164° |
| 2026-05-06 17:34 | 41.93849 | 12.17469 | 2564 ft | 162 kts | 165° |
| 2026-05-06 17:34 | 41.92783 | 12.17916 | 2322 ft | 159 kts | 165° |
| 2026-05-06 17:35 | 41.91732 | 12.18358 | 2098 ft | 155 kts | 165° |
| 2026-05-06 17:35 | 41.90713 | 12.18786 | 1886 ft | 151 kts | 164° |
| 2026-05-06 17:35 | 41.89727 | 12.19201 | 1692 ft | 146 kts | 165° |
| 2026-05-06 17:36 | 41.87805 | 12.20007 | 1297 ft | 145 kts | 164° |
| 2026-05-06 17:36 | 41.86823 | 12.20420 | 1122 ft | 149 kts | 164° |
| 2026-05-06 17:36 | 41.85842 | 12.20831 | 932 ft | 149 kts | 161° |
| 2026-05-06 17:36 | 41.84833 | 12.21258 | 729 ft | 149 kts | 161° |
| 2026-05-06 17:37 | 41.83851 | 12.21681 | 490 ft | 147 kts | 161° |
| 2026-05-06 17:37 | 41.82872 | 12.22101 | 336 ft | 147 kts | 162° |
| 2026-05-06 17:37 | 41.81875 | 12.22508 | 213 ft | 153 kts | 161° |
| 2026-05-06 17:37 | 41.80863 | 12.22958 | 27 ft | 148 kts | 160° |
| 2026-05-06 17:38 | 41.80122 | 12.23262 | 21 ft | 89 kts | 162° |
| 2026-05-06 17:38 | 41.79798 | 12.23400 | 18 ft | 29 kts | 161° |
| 2026-05-06 17:38 | 41.79606 | 12.23495 | 12 ft | 27 kts | 159° |
| 2026-05-06 17:38 | 41.79456 | 12.23627 | 12 ft | 26 kts | 135° |
| 2026-05-06 17:39 | 41.79360 | 12.23764 | 14 ft | 15 kts | 130° |
| 2026-05-06 17:39 | 41.79302 | 12.23860 | 16 ft | 11 kts | 127° |
| 2026-05-06 17:39 | 41.79290 | 12.23882 | 16 ft | 3 kts | 127° |
| 2026-05-06 17:39 | 41.79270 | 12.23917 | 15 ft | 7 kts | 126° |
| 2026-05-06 17:40 | 41.79260 | 12.23985 | 16 ft | 8 kts | 80° |
| 2026-05-06 17:40 | 41.79276 | 12.24062 | 18 ft | 9 kts | 74° |
| 2026-05-06 17:40 | 41.79298 | 12.24154 | 20 ft | 11 kts | 71° |
| 2026-05-06 17:40 | 41.79330 | 12.24263 | 19 ft | 14 kts | 68° |
| 2026-05-06 17:41 | 41.79324 | 12.24377 | 18 ft | 12 kts | 118° |
| 2026-05-06 17:41 | 41.79299 | 12.24485 | 18 ft | 12 kts | 88° |
| 2026-05-06 17:41 | 41.79312 | 12.24590 | 18 ft | 11 kts | 78° |
| 2026-05-06 17:41 | 41.79323 | 12.24654 | 20 ft | 1 kts | 77° |
| 2026-05-06 17:42 | 41.79328 | 12.24681 | 19 ft | 5 kts | 77° |
| 2026-05-06 17:42 | 41.79350 | 12.24695 | 18 ft | 5 kts | 5° |
| 2026-05-06 17:42 | 41.79389 | 12.24690 | 19 ft | 7 kts | 347° |
| 2026-05-06 17:42 | 41.79391 | 12.24690 | 19 ft | 0 kts | 346° |